createdAt,value
2023-10-23T00:01:11.479Z,13.60
2023-10-23T00:03:38.150Z,13.60
2023-10-23T00:06:04.717Z,13.52
2023-10-23T00:08:31.210Z,13.18
2023-10-23T00:10:57.672Z,13.48
2023-10-23T00:13:24.128Z,14.30
2023-10-23T00:15:50.598Z,14.70
2023-10-23T00:18:17.190Z,12.75
2023-10-23T00:20:43.630Z,13.85
2023-10-23T00:23:10.152Z,15.10
2023-10-23T00:25:36.600Z,12.55
2023-10-23T00:28:03.131Z,12.68
2023-10-23T00:30:33.277Z,13.88
2023-10-23T00:32:59.879Z,11.82
2023-10-23T00:35:26.411Z,12.23
2023-10-23T00:37:52.889Z,12.93
2023-10-23T00:40:19.354Z,13.13
2023-10-23T00:42:45.838Z,13.55
2023-10-23T00:45:12.359Z,12.98
2023-10-23T00:47:38.985Z,11.85
2023-10-23T00:50:06.043Z,12.52
2023-10-23T00:52:32.609Z,12.45
2023-10-23T00:54:59.632Z,11.57
2023-10-23T00:57:26.254Z,12.63
2023-10-23T00:59:52.915Z,13.13
2023-10-23T01:02:19.422Z,11.57
2023-10-23T01:04:46.121Z,11.13
2023-10-23T01:07:12.728Z,13.07
2023-10-23T01:09:39.336Z,13.07
2023-10-23T01:12:06.429Z,13.23
2023-10-23T01:14:32.935Z,12.20
2023-10-23T01:16:59.412Z,12.25
2023-10-23T01:19:25.947Z,13.13
2023-10-23T01:21:52.436Z,12.55
2023-10-23T01:24:22.966Z,12.27
2023-10-23T01:26:49.729Z,12.00
2023-10-23T01:29:16.395Z,12.20
2023-10-23T01:31:42.934Z,11.75
2023-10-23T01:34:09.410Z,14.85
2023-10-23T01:36:36.886Z,12.52
2023-10-23T01:39:03.792Z,13.00
2023-10-23T01:41:30.275Z,13.13
2023-10-23T01:43:56.803Z,15.68
2023-10-23T01:46:23.374Z,14.15
2023-10-23T01:48:49.890Z,12.57
2023-10-23T01:51:16.468Z,14.05
2023-10-23T01:53:42.920Z,13.38
2023-10-23T01:56:09.598Z,12.65
2023-10-23T01:58:36.468Z,12.63
2023-10-23T02:01:03.075Z,11.75
2023-10-23T02:03:31.394Z,11.88
2023-10-23T02:05:58.019Z,12.90
2023-10-23T02:08:25.278Z,11.52
2023-10-23T02:10:52.271Z,11.77
2023-10-23T02:13:20.174Z,12.02
2023-10-23T02:15:46.643Z,13.05
2023-10-23T02:18:13.211Z,12.43
2023-10-23T02:20:39.776Z,11.48
2023-10-23T02:23:06.267Z,10.35
2023-10-23T02:25:32.778Z,11.93
2023-10-23T02:27:59.275Z,11.77
2023-10-23T02:30:25.957Z,10.63
2023-10-23T02:32:52.440Z,11.57
2023-10-23T02:35:19.031Z,12.70
2023-10-23T02:37:45.604Z,12.10
2023-10-23T02:40:12.935Z,12.02
2023-10-23T02:42:39.592Z,11.48
2023-10-23T02:45:07.003Z,11.27
2023-10-23T02:47:33.497Z,12.55
2023-10-23T02:49:59.947Z,13.25
2023-10-23T02:52:26.779Z,11.52
2023-10-23T02:54:53.326Z,12.90
2023-10-23T02:57:19.992Z,12.40
2023-10-23T02:59:49.371Z,13.18
2023-10-23T03:02:17.741Z,11.88
2023-10-23T03:04:44.243Z,10.85
2023-10-23T03:07:10.751Z,14.43
2023-10-23T03:09:38.161Z,13.45
2023-10-23T03:12:05.778Z,13.43
2023-10-23T03:14:32.792Z,11.85
2023-10-23T03:16:59.308Z,11.98
2023-10-23T03:19:26.691Z,12.57
2023-10-23T03:21:53.477Z,12.75
2023-10-23T03:24:20.213Z,11.05
2023-10-23T03:26:46.839Z,10.93
2023-10-23T03:29:13.267Z,11.23
2023-10-23T03:31:39.926Z,12.07
2023-10-23T03:34:06.500Z,11.88
2023-10-23T03:36:33.117Z,12.35
2023-10-23T03:38:59.588Z,11.68
2023-10-23T03:41:26.988Z,11.80
2023-10-23T03:43:53.478Z,11.70
2023-10-23T03:46:20.039Z,12.63
2023-10-23T03:48:46.648Z,11.48
2023-10-23T03:51:13.171Z,12.13
2023-10-23T03:53:39.620Z,11.27
2023-10-23T03:56:07.281Z,12.90
2023-10-23T03:58:33.838Z,11.30
2023-10-23T04:01:00.542Z,12.40
2023-10-23T04:03:27.822Z,12.88
2023-10-23T04:05:54.405Z,11.60
2023-10-23T04:08:21.036Z,11.27
2023-10-23T04:10:49.149Z,12.98
2023-10-23T04:13:16.768Z,13.65
2023-10-23T04:15:57.178Z,11.38
2023-10-23T04:18:25.366Z,12.43
2023-10-23T04:21:01.435Z,11.93
2023-10-23T04:23:27.883Z,11.05
2023-10-23T04:25:55.970Z,12.48
2023-10-23T04:28:23.114Z,12.05
2023-10-23T04:30:49.633Z,11.80
2023-10-23T04:33:17.963Z,11.20
2023-10-23T04:35:45.920Z,11.93
2023-10-23T04:38:13.241Z,12.02
2023-10-23T04:40:39.695Z,11.65
2023-10-23T04:43:06.197Z,11.85
2023-10-23T04:45:32.759Z,10.65
2023-10-23T04:47:59.414Z,12.23
2023-10-23T04:50:25.998Z,10.95
2023-10-23T04:52:52.494Z,10.52
2023-10-23T04:55:18.939Z,12.60
2023-10-23T04:57:45.559Z,11.60
2023-10-23T05:00:12.799Z,11.05
2023-10-23T05:02:39.309Z,11.55
2023-10-23T05:05:07.371Z,11.00
2023-10-23T05:07:33.870Z,11.88
2023-10-23T05:10:03.235Z,10.55
2023-10-23T05:12:29.836Z,9.98
2023-10-23T05:14:56.299Z,11.52
2023-10-23T05:17:25.119Z,10.35
2023-10-23T05:19:51.579Z,9.07
2023-10-23T05:22:18.013Z,10.32
2023-10-23T05:24:48.429Z,10.18
2023-10-23T05:27:15.682Z,9.90
2023-10-23T05:29:42.332Z,9.80
2023-10-23T05:32:08.770Z,10.82
2023-10-23T05:34:35.426Z,11.07
2023-10-23T05:37:02.203Z,11.90
2023-10-23T05:39:29.360Z,10.60
2023-10-23T05:41:55.968Z,10.10
2023-10-23T05:44:22.513Z,10.85
2023-10-23T05:46:49.082Z,11.82
2023-10-23T05:49:15.580Z,9.68
2023-10-23T05:51:42.273Z,11.25
2023-10-23T05:54:10.717Z,10.52
2023-10-23T05:56:37.431Z,10.65
2023-10-23T05:59:04.738Z,11.10
2023-10-23T06:01:31.531Z,11.15
2023-10-23T06:03:58.189Z,11.40
2023-10-23T06:06:24.918Z,11.30
2023-10-23T06:08:51.564Z,10.77
2023-10-23T06:11:18.199Z,11.07
2023-10-23T06:13:44.631Z,10.48
2023-10-23T06:16:11.143Z,11.20
2023-10-23T06:18:39.511Z,9.85
2023-10-23T06:21:07.256Z,13.38
2023-10-23T06:23:38.608Z,9.13
2023-10-23T06:26:05.796Z,8.65
2023-10-23T06:28:33.358Z,9.75
2023-10-23T06:31:10.718Z,9.77
2023-10-23T06:33:39.882Z,9.65
2023-10-23T06:36:10.334Z,13.25
2023-10-23T06:38:37.916Z,10.70
2023-10-23T06:41:08.212Z,10.50
2023-10-23T06:43:35.648Z,9.88
2023-10-23T06:46:04.754Z,9.48
2023-10-23T06:48:32.386Z,9.88
2023-10-23T06:50:59.977Z,10.90
2023-10-23T06:53:26.529Z,10.93
2023-10-23T06:55:54.541Z,9.98
2023-10-23T06:58:21.925Z,8.93
2023-10-23T07:00:49.301Z,10.10
2023-10-23T07:03:16.265Z,9.13
2023-10-23T07:05:43.085Z,8.88
2023-10-23T07:08:09.784Z,9.93
2023-10-23T07:10:36.928Z,9.85
2023-10-23T07:13:11.088Z,11.73
2023-10-23T07:15:42.109Z,10.38
2023-10-23T07:18:11.371Z,8.23
2023-10-23T07:20:37.983Z,8.10
2023-10-23T07:23:04.434Z,8.57
2023-10-23T07:25:30.891Z,8.52
2023-10-23T07:27:57.352Z,8.43
2023-10-23T07:30:25.495Z,7.32
2023-10-23T07:32:52.279Z,9.13
2023-10-23T07:35:18.798Z,8.55
2023-10-23T07:37:45.313Z,7.85
2023-10-23T07:40:12.383Z,9.02
2023-10-23T07:42:39.125Z,7.85
2023-10-23T07:45:06.396Z,7.28
2023-10-23T07:47:32.955Z,9.98
2023-10-23T07:49:59.477Z,7.10
2023-10-23T07:52:26.048Z,7.63
2023-10-23T07:54:52.773Z,7.80
2023-10-23T07:57:19.291Z,8.90
2023-10-23T07:59:45.791Z,8.32
2023-10-23T08:02:12.526Z,8.27
2023-10-23T08:04:39.242Z,7.43
2023-10-23T08:07:05.906Z,8.02
2023-10-23T08:09:32.444Z,8.68
2023-10-23T08:11:59.044Z,8.90
2023-10-23T08:14:25.569Z,7.93
2023-10-23T08:16:53.442Z,7.82
2023-10-23T08:19:21.446Z,6.88
2023-10-23T08:21:49.199Z,7.50
2023-10-23T08:24:16.469Z,8.10
2023-10-23T08:26:47.920Z,7.97
2023-10-23T08:29:16.413Z,7.85
2023-10-23T08:31:43.568Z,8.27
2023-10-23T08:34:10.707Z,7.35
2023-10-23T08:36:37.530Z,7.35
2023-10-23T08:39:04.785Z,7.65
2023-10-23T08:41:32.615Z,7.63
2023-10-23T08:43:59.864Z,9.05
2023-10-23T08:46:28.061Z,8.55
2023-10-23T08:48:55.112Z,7.50
2023-10-23T08:51:22.092Z,8.32
2023-10-23T08:54:09.221Z,7.70
2023-10-23T08:56:38.929Z,7.70
2023-10-23T08:59:06.137Z,7.85
2023-10-23T09:01:37.924Z,9.25
2023-10-23T09:04:06.786Z,7.55
2023-10-23T09:06:37.587Z,7.30
2023-10-23T09:09:07.493Z,8.25
2023-10-23T09:11:42.759Z,8.23
2023-10-23T09:14:10.372Z,8.10
2023-10-23T09:16:37.870Z,6.45
2023-10-23T09:19:05.032Z,6.55
2023-10-23T09:21:34.432Z,6.78
2023-10-23T09:24:04.956Z,6.35
2023-10-23T09:26:32.672Z,7.03
2023-10-23T09:28:59.493Z,8.85
2023-10-23T09:31:26.377Z,8.07
2023-10-23T09:33:53.043Z,7.72
2023-10-23T09:36:21.927Z,6.72
2023-10-23T09:38:59.893Z,8.45
2023-10-23T09:41:28.711Z,8.23
2023-10-23T09:43:57.558Z,8.02
2023-10-23T09:46:26.837Z,7.97
2023-10-23T09:49:00.621Z,8.15
2023-10-23T09:51:40.437Z,10.32
2023-10-23T09:54:23.436Z,8.32
2023-10-23T09:56:54.124Z,8.50
2023-10-23T09:59:30.988Z,7.90
2023-10-23T10:02:02.217Z,7.28
2023-10-23T10:04:34.367Z,7.53
2023-10-23T10:07:25.102Z,7.72
2023-10-23T10:09:53.374Z,6.60
2023-10-23T10:12:22.023Z,6.88
2023-10-23T10:14:49.280Z,6.78
2023-10-23T10:17:22.937Z,7.97
2023-10-23T10:19:51.010Z,6.72
2023-10-23T10:22:36.926Z,6.70
2023-10-23T10:25:06.366Z,7.43
2023-10-23T10:27:33.875Z,6.10
2023-10-23T10:30:03.111Z,6.80
2023-10-23T10:32:29.622Z,7.13
2023-10-23T10:34:57.949Z,7.43
2023-10-23T10:37:29.998Z,6.55
2023-10-23T10:39:56.532Z,7.15
2023-10-23T10:42:29.519Z,8.13
2023-10-23T10:45:01.060Z,7.68
2023-10-23T10:47:37.162Z,7.18
2023-10-23T10:50:05.286Z,8.27
2023-10-23T10:52:36.578Z,7.10
2023-10-23T10:55:06.064Z,6.10
2023-10-23T10:57:33.039Z,6.25
2023-10-23T11:00:00.247Z,7.07
2023-10-23T11:02:27.362Z,6.68
2023-10-23T11:04:53.837Z,6.00
2023-10-23T11:07:28.025Z,6.65
2023-10-23T11:09:55.263Z,6.40
2023-10-23T11:12:22.436Z,7.20
2023-10-23T11:14:49.040Z,8.65
2023-10-23T11:17:16.661Z,9.13
2023-10-23T11:19:44.400Z,7.82
2023-10-23T11:22:13.188Z,7.45
2023-10-23T11:24:40.524Z,8.13
2023-10-23T11:27:08.288Z,8.75
2023-10-23T11:29:45.090Z,8.43
2023-10-23T11:32:14.504Z,8.75
2023-10-23T11:34:42.182Z,9.10
2023-10-23T11:37:11.314Z,9.40
2023-10-23T11:39:40.246Z,9.43
2023-10-23T11:42:07.478Z,8.80
2023-10-23T11:44:35.903Z,8.70
2023-10-23T11:47:07.158Z,9.07
2023-10-23T11:49:34.237Z,8.15
2023-10-23T11:52:02.205Z,7.82
2023-10-23T11:54:29.574Z,9.00
2023-10-23T11:56:59.142Z,8.25
2023-10-23T11:59:29.062Z,9.00
2023-10-23T12:01:56.494Z,8.93
2023-10-23T12:04:23.880Z,9.88
2023-10-23T12:06:50.633Z,9.10
2023-10-23T12:09:17.274Z,8.38
2023-10-23T12:11:43.829Z,7.60
2023-10-23T12:14:10.368Z,7.63
2023-10-23T12:16:37.032Z,8.05
2023-10-23T12:19:04.584Z,9.07
2023-10-23T12:21:31.098Z,8.18
2023-10-23T12:23:57.603Z,9.27
2023-10-23T12:26:25.066Z,7.78
2023-10-23T12:28:51.822Z,9.15
2023-10-23T12:31:23.912Z,8.00
2023-10-23T12:33:51.895Z,8.63
2023-10-23T12:36:18.577Z,7.43
2023-10-23T12:38:45.058Z,7.88
2023-10-23T12:41:11.692Z,9.23
2023-10-23T12:43:39.002Z,7.97
2023-10-23T12:46:05.639Z,10.57
2023-10-23T12:48:32.211Z,9.38
2023-10-23T12:50:58.742Z,8.90
2023-10-23T12:53:25.539Z,9.10
2023-10-23T12:55:52.168Z,8.65
2023-10-23T12:58:18.767Z,7.85
2023-10-23T13:00:45.307Z,8.68
2023-10-23T13:03:11.937Z,9.52
2023-10-23T13:05:38.602Z,7.90
2023-10-23T13:08:05.626Z,8.85
2023-10-23T13:10:32.243Z,6.75
2023-10-23T13:12:58.781Z,7.78
2023-10-23T13:15:25.899Z,7.20
2023-10-23T13:17:55.051Z,8.13
2023-10-23T13:21:29.493Z,7.90
2023-10-23T13:23:08.700Z,7.55
2023-10-23T13:25:36.003Z,9.35
2023-10-23T13:28:02.639Z,8.93
2023-10-23T13:30:29.507Z,7.32
2023-10-23T13:32:56.165Z,8.90
2023-10-23T13:35:22.922Z,7.97
2023-10-23T13:37:49.379Z,8.23
2023-10-23T13:40:16.200Z,7.53
2023-10-23T13:42:42.799Z,6.93
2023-10-23T13:45:09.948Z,7.57
2023-10-23T13:47:36.592Z,8.63
2023-10-23T13:50:03.198Z,8.00
2023-10-23T13:52:29.705Z,8.30
2023-10-23T13:54:57.428Z,9.20
2023-10-23T13:57:25.637Z,8.00
2023-10-23T13:59:52.106Z,9.13
2023-10-23T14:02:18.607Z,8.68
2023-10-23T14:04:45.317Z,8.65
2023-10-23T14:07:13.708Z,9.07
2023-10-23T14:09:46.178Z,8.30
2023-10-23T14:12:15.656Z,8.23
2023-10-23T14:14:42.238Z,9.02
2023-10-23T14:17:09.069Z,9.85
2023-10-23T14:19:46.503Z,9.90
2023-10-23T14:22:15.326Z,10.35
2023-10-23T14:24:42.174Z,8.27
2023-10-23T14:27:10.285Z,9.27
2023-10-23T14:29:37.179Z,8.52
2023-10-23T14:32:03.939Z,7.75
2023-10-23T14:34:30.559Z,7.95
2023-10-23T14:36:57.222Z,9.57
2023-10-23T14:39:27.809Z,8.98
2023-10-23T14:41:55.743Z,8.38
2023-10-23T14:44:24.482Z,11.10
2023-10-23T14:46:51.867Z,8.98
2023-10-23T14:49:19.069Z,9.00
2023-10-23T14:51:45.638Z,10.10
2023-10-23T14:54:12.951Z,8.52
2023-10-23T14:56:39.554Z,10.18
2023-10-23T14:59:11.535Z,9.93
2023-10-23T15:01:39.017Z,10.25
2023-10-23T15:04:06.000Z,11.63
2023-10-23T15:06:32.605Z,9.70
2023-10-23T15:08:59.782Z,10.20
2023-10-23T15:11:26.536Z,11.38
2023-10-23T15:13:55.803Z,11.15
2023-10-23T15:16:22.706Z,11.43
2023-10-23T15:18:51.647Z,11.45
2023-10-23T15:21:18.217Z,11.90
2023-10-23T15:23:44.831Z,11.32
2023-10-23T15:26:11.350Z,11.68
2023-10-23T15:28:39.195Z,11.93
2023-10-23T15:31:06.931Z,13.27
2023-10-23T15:33:36.361Z,14.18
2023-10-23T15:36:03.585Z,11.65
2023-10-23T15:38:31.083Z,11.23
2023-10-23T15:41:11.198Z,10.40
2023-10-23T15:43:39.240Z,14.38
2023-10-23T15:46:14.589Z,11.93
2023-10-23T15:48:41.897Z,9.52
2023-10-23T15:51:08.812Z,11.15
2023-10-23T15:53:35.740Z,12.20
2023-10-23T15:56:02.223Z,14.68
2023-10-23T15:58:29.622Z,13.32
2023-10-23T16:00:58.111Z,13.18
2023-10-23T16:03:25.078Z,12.57
2023-10-23T16:05:52.370Z,14.00
2023-10-23T16:08:19.030Z,13.80
2023-10-23T16:10:50.453Z,16.00
2023-10-23T16:13:18.406Z,12.02
2023-10-23T16:15:46.159Z,13.52
2023-10-23T16:18:14.041Z,14.98
2023-10-23T16:20:43.256Z,11.77
2023-10-23T16:23:10.814Z,14.23
2023-10-23T16:25:38.500Z,12.15
2023-10-23T16:28:05.656Z,12.88
2023-10-23T16:30:32.204Z,11.40
2023-10-23T16:32:58.753Z,11.13
2023-10-23T16:35:26.170Z,14.27
2023-10-23T16:37:53.340Z,13.77
2023-10-23T16:40:20.195Z,12.32
2023-10-23T16:42:48.289Z,11.35
2023-10-23T16:45:15.268Z,11.32
2023-10-23T16:47:41.902Z,12.23
2023-10-23T16:50:09.046Z,13.68
2023-10-23T16:52:36.632Z,11.85
2023-10-23T16:55:05.770Z,13.43
2023-10-23T16:57:33.833Z,19.02
2023-10-23T17:00:00.540Z,20.98
2023-10-23T17:02:27.358Z,21.38
2023-10-23T17:04:54.998Z,18.20
2023-10-23T17:07:21.773Z,19.55
2023-10-23T17:09:48.377Z,19.55
2023-10-23T17:12:15.218Z,18.33
2023-10-23T17:14:41.872Z,19.15
2023-10-23T17:17:09.730Z,19.85
2023-10-23T17:19:36.483Z,18.85
2023-10-23T17:22:03.189Z,19.83
2023-10-23T17:24:29.951Z,18.30
2023-10-23T17:26:56.481Z,18.90
2023-10-23T17:29:23.046Z,14.88
2023-10-23T17:31:51.318Z,13.60
2023-10-23T17:34:19.303Z,14.43
2023-10-23T17:36:45.764Z,15.73
2023-10-23T17:39:12.945Z,6.28
2023-10-23T17:41:39.397Z,3.65
2023-10-23T17:44:06.651Z,3.13
2023-10-23T17:46:36.339Z,3.97
2023-10-23T17:51:29.923Z,8.07
2023-10-23T17:54:04.952Z,9.63
2023-10-23T17:56:36.695Z,10.63
2023-10-23T18:01:30.165Z,9.80
2023-10-23T18:03:56.886Z,9.18
2023-10-23T18:06:23.496Z,10.25
2023-10-23T18:08:49.990Z,11.30
2023-10-23T18:11:16.864Z,9.40
2023-10-23T18:13:44.859Z,9.23
2023-10-23T18:16:14.967Z,9.30
2023-10-23T18:18:41.716Z,15.10
2023-10-23T18:21:08.306Z,16.17
2023-10-23T18:23:35.228Z,15.80
2023-10-23T18:26:01.794Z,12.77
2023-10-23T18:28:29.225Z,10.10
2023-10-23T18:30:56.705Z,10.40
2023-10-23T18:33:24.401Z,10.27
2023-10-23T18:35:51.183Z,8.82
2023-10-23T18:38:18.001Z,8.00
2023-10-23T18:40:44.696Z,7.95
2023-10-23T18:43:11.332Z,8.70
2023-10-23T18:45:42.941Z,5.45
2023-10-23T18:48:10.650Z,6.35
2023-10-23T18:50:37.404Z,7.90
2023-10-23T18:53:04.050Z,6.15
2023-10-23T18:55:30.550Z,5.78
2023-10-23T18:57:57.270Z,3.83
2023-10-23T19:00:23.894Z,3.58
2023-10-23T19:02:50.899Z,4.35
2023-10-23T19:05:17.578Z,5.15
2023-10-23T19:07:44.066Z,4.57
2023-10-23T19:10:11.028Z,6.07
2023-10-23T19:12:37.597Z,4.90
2023-10-23T19:15:04.406Z,4.75
2023-10-23T19:17:40.415Z,3.83
2023-10-23T19:20:09.471Z,4.63
2023-10-23T19:22:37.005Z,5.32
2023-10-23T19:25:05.085Z,6.47
2023-10-23T19:27:32.952Z,4.57
2023-10-23T19:30:00.110Z,3.72
2023-10-23T19:32:27.842Z,3.63
2023-10-23T19:34:54.698Z,4.03
2023-10-23T19:37:21.860Z,2.95
2023-10-23T19:39:48.688Z,3.92
2023-10-23T19:42:19.585Z,4.63
2023-10-23T19:44:46.601Z,4.05
2023-10-23T19:47:16.290Z,3.55
2023-10-23T19:49:44.084Z,10.40
2023-10-23T19:52:14.152Z,12.05
2023-10-23T19:54:41.959Z,9.82
2023-10-23T19:57:11.165Z,11.57
2023-10-23T19:59:39.154Z,14.60
2023-10-23T20:02:06.167Z,7.93
2023-10-23T20:04:33.101Z,6.50
2023-10-23T20:07:00.453Z,7.97
2023-10-23T20:09:27.237Z,6.95
2023-10-23T20:11:53.943Z,8.13
2023-10-23T20:14:20.638Z,6.43
2023-10-23T20:16:47.390Z,8.43
2023-10-23T20:19:14.451Z,6.35
2023-10-23T20:21:41.076Z,6.63
2023-10-23T20:24:08.014Z,5.70
2023-10-23T20:26:34.524Z,6.60
2023-10-23T20:29:01.138Z,7.93
2023-10-23T20:31:27.711Z,6.25
2023-10-23T20:33:54.559Z,6.82
2023-10-23T20:36:21.173Z,6.90
2023-10-23T20:38:48.128Z,7.88
2023-10-23T20:41:19.322Z,7.55
2023-10-23T20:46:14.590Z,6.30
2023-10-23T20:48:41.156Z,7.60
2023-10-23T20:51:08.444Z,8.73
2023-10-23T20:53:34.931Z,8.57
2023-10-23T20:56:04.984Z,8.45
2023-10-23T20:58:32.153Z,8.18
2023-10-23T21:01:05.115Z,7.32
2023-10-23T21:03:32.032Z,8.13
2023-10-23T21:06:05.358Z,9.20
2023-10-23T21:08:36.874Z,8.75
2023-10-23T21:11:05.438Z,9.40
2023-10-23T21:13:32.284Z,9.15
2023-10-23T21:15:58.806Z,8.45
2023-10-23T21:18:25.299Z,8.40
2023-10-23T21:20:54.487Z,7.88
2023-10-23T21:23:21.098Z,7.20
2023-10-23T21:25:47.593Z,9.32
2023-10-23T21:28:14.128Z,8.27
2023-10-23T21:30:40.614Z,8.60
2023-10-23T21:33:07.536Z,9.23
2023-10-23T21:35:34.017Z,9.38
2023-10-23T21:38:00.569Z,9.30
2023-10-23T21:40:27.076Z,8.57
2023-10-23T21:42:53.568Z,8.82
2023-10-23T21:45:20.042Z,8.48
2023-10-23T21:47:46.628Z,10.13
2023-10-23T21:50:13.342Z,9.18
2023-10-23T21:52:40.216Z,9.50
2023-10-23T21:55:18.723Z,8.48
2023-10-23T21:57:46.331Z,9.50
2023-10-23T22:00:22.494Z,9.68
2023-10-23T22:02:49.404Z,8.65
2023-10-23T22:05:16.118Z,9.23
2023-10-23T22:07:43.021Z,9.13
2023-10-23T22:10:10.478Z,9.23
2023-10-23T22:12:37.337Z,9.27
2023-10-23T22:15:04.820Z,10.73
2023-10-23T22:17:31.454Z,9.82
2023-10-23T22:19:58.757Z,10.38
2023-10-23T22:22:25.988Z,9.65
2023-10-23T22:24:52.475Z,10.65
2023-10-23T22:27:19.018Z,9.75
2023-10-23T22:29:45.464Z,9.82
2023-10-23T22:32:11.956Z,11.50
2023-10-23T22:34:38.611Z,9.80
2023-10-23T22:38:02.907Z,10.18
2023-10-23T22:39:51.667Z,12.88
2023-10-23T22:42:18.104Z,10.65
2023-10-23T22:44:44.685Z,10.02
2023-10-23T22:47:11.302Z,10.00
2023-10-23T22:49:38.730Z,9.15
2023-10-23T22:52:06.011Z,9.98
2023-10-23T22:54:32.955Z,11.55
2023-10-23T22:57:03.026Z,11.13
2023-10-23T22:59:29.756Z,9.05
2023-10-23T23:01:56.462Z,10.18
2023-10-23T23:04:23.533Z,10.05
2023-10-23T23:06:52.513Z,9.68
2023-10-23T23:09:19.648Z,9.68
2023-10-23T23:11:46.778Z,10.23
2023-10-23T23:14:13.614Z,9.40
2023-10-23T23:16:41.420Z,10.32
2023-10-23T23:19:11.215Z,9.43
2023-10-23T23:21:38.985Z,8.02
2023-10-23T23:24:05.960Z,10.98
2023-10-23T23:26:32.512Z,10.15
2023-10-23T23:28:58.968Z,10.40
2023-10-23T23:31:25.538Z,12.45
2023-10-23T23:33:52.074Z,11.57
2023-10-23T23:36:18.536Z,10.38
2023-10-23T23:38:44.982Z,10.85
2023-10-23T23:41:11.517Z,10.52
2023-10-23T23:43:38.025Z,10.43
2023-10-23T23:46:04.586Z,10.18
2023-10-23T23:48:31.117Z,11.88
2023-10-23T23:50:57.560Z,9.82
2023-10-23T23:53:24.085Z,11.15
2023-10-23T23:55:50.826Z,11.80
2023-10-23T23:58:17.437Z,11.40
